createdAt,value
2023-03-27T00:03:01.912Z,2.96
2023-03-27T00:08:09.579Z,2.99
2023-03-27T00:13:13.864Z,2.81
2023-03-27T00:18:17.692Z,2.68
2023-03-27T00:23:22.644Z,2.60
2023-03-27T00:28:28.941Z,2.63
2023-03-27T00:33:32.441Z,2.68
2023-03-27T00:38:37.053Z,2.47
2023-03-27T00:43:44.064Z,2.52
2023-03-27T00:48:52.304Z,2.44
2023-03-27T00:53:57.558Z,2.41
2023-03-27T00:59:02.504Z,2.38
2023-03-27T01:04:07.038Z,2.20
2023-03-27T01:09:10.252Z,2.18
2023-03-27T01:14:28.830Z,2.14
2023-03-27T01:19:42.161Z,2.10
2023-03-27T01:25:19.782Z,2.05
2023-03-27T01:30:49.300Z,1.97
2023-03-27T01:36:02.806Z,1.93
2023-03-27T01:41:16.513Z,1.91
2023-03-27T01:46:32.039Z,1.92
2023-03-27T01:51:44.426Z,1.93
2023-03-27T01:56:53.959Z,1.89
2023-03-27T02:02:12.148Z,1.84
2023-03-27T02:07:22.313Z,1.80
2023-03-27T02:12:32.914Z,1.92
2023-03-27T02:17:40.417Z,2.06
2023-03-27T02:22:50.995Z,2.23
2023-03-27T02:28:20.411Z,2.41
2023-03-27T02:33:36.120Z,2.60
2023-03-27T02:39:03.898Z,2.70
2023-03-27T02:44:32.940Z,2.72
2023-03-27T02:49:43.085Z,2.75
2023-03-27T02:54:54.075Z,2.80
2023-03-27T03:00:00.889Z,2.97
2023-03-27T03:05:18.040Z,3.01
2023-03-27T03:10:21.828Z,3.00
2023-03-27T03:15:25.241Z,3.01
2023-03-27T03:20:31.522Z,3.01
2023-03-27T03:25:35.764Z,3.03
2023-03-27T03:30:42.283Z,3.02
2023-03-27T03:35:48.601Z,3.00
2023-03-27T03:40:54.409Z,3.00
2023-03-27T03:45:58.482Z,3.04
2023-03-27T03:51:01.930Z,2.95
2023-03-27T03:56:05.986Z,2.99
2023-03-27T04:01:09.369Z,2.99
2023-03-27T04:06:12.883Z,3.07
2023-03-27T04:11:16.399Z,3.07
2023-03-27T04:16:20.078Z,3.07
2023-03-27T04:21:27.008Z,3.12
2023-03-27T04:26:30.377Z,3.14
2023-03-27T04:31:34.803Z,3.17
2023-03-27T04:36:38.283Z,3.24
2023-03-27T04:41:41.699Z,3.29
2023-03-27T04:46:49.289Z,3.30
2023-03-27T04:51:52.663Z,3.32
2023-03-27T04:56:56.162Z,3.32
2023-03-27T05:02:04.499Z,3.35
2023-03-27T05:07:07.879Z,3.42
2023-03-27T05:12:11.489Z,3.51
2023-03-27T05:17:16.850Z,3.58
2023-03-27T05:22:20.269Z,3.66
2023-03-27T05:27:24.391Z,3.74
2023-03-27T05:32:27.928Z,3.86
2023-03-27T05:37:31.322Z,3.90
2023-03-27T05:42:34.834Z,3.88
2023-03-27T05:47:47.132Z,3.89
2023-03-27T05:53:04.705Z,3.92
2023-03-27T05:58:10.256Z,4.05
2023-03-27T06:03:15.091Z,4.19
2023-03-27T06:08:18.730Z,4.34
2023-03-27T06:13:22.144Z,4.57
2023-03-27T06:18:25.558Z,4.84
2023-03-27T06:23:30.300Z,4.90
2023-03-27T06:28:34.020Z,4.91
2023-03-27T06:33:40.208Z,4.87
2023-03-27T06:38:44.232Z,4.87
2023-03-27T06:43:47.643Z,5.00
2023-03-27T06:48:52.132Z,5.00
2023-03-27T06:53:56.006Z,4.87
2023-03-27T06:58:59.530Z,4.83
2023-03-27T07:04:03.151Z,4.86
2023-03-27T07:09:06.453Z,4.98
2023-03-27T07:14:10.164Z,5.18
2023-03-27T07:19:13.678Z,5.38
2023-03-27T07:24:17.295Z,5.49
2023-03-27T07:29:21.119Z,5.59
2023-03-27T07:34:24.763Z,5.88
2023-03-27T07:39:28.054Z,6.22
2023-03-27T07:44:31.672Z,6.22
2023-03-27T07:49:39.944Z,6.06
2023-03-27T07:54:44.438Z,5.94
2023-03-27T07:59:48.363Z,6.12
2023-03-27T08:04:55.645Z,6.41
2023-03-27T08:09:59.282Z,6.58
2023-03-27T08:15:03.028Z,6.86
2023-03-27T08:20:09.794Z,6.99
2023-03-27T08:25:13.821Z,7.17
2023-03-27T08:30:17.737Z,7.27
2023-03-27T08:35:21.538Z,7.27
2023-03-27T08:40:29.085Z,7.30
2023-03-27T08:45:39.559Z,7.38
2023-03-27T08:50:54.134Z,7.51
2023-03-27T08:55:57.726Z,7.38
2023-03-27T09:01:11.818Z,7.37
2023-03-27T09:06:38.576Z,7.70
2023-03-27T09:12:01.855Z,7.89
2023-03-27T09:17:17.701Z,8.05
2023-03-27T09:22:28.853Z,8.11
2023-03-27T09:27:37.933Z,7.94
2023-03-27T09:32:43.198Z,8.02
2023-03-27T09:37:58.692Z,8.20
2023-03-27T09:43:11.495Z,8.62
2023-03-27T09:48:23.601Z,9.17
2023-03-27T09:53:28.245Z,9.04
2023-03-27T09:58:37.292Z,8.72
2023-03-27T10:03:49.386Z,8.19
2023-03-27T10:08:55.593Z,7.34
2023-03-27T10:14:01.814Z,6.64
2023-03-27T10:19:05.382Z,6.14
2023-03-27T10:24:20.071Z,6.01
2023-03-27T10:29:26.365Z,5.74
2023-03-27T10:34:40.231Z,5.75
2023-03-27T10:39:43.814Z,5.64
2023-03-27T10:44:48.781Z,5.41
2023-03-27T10:50:04.874Z,5.44
2023-03-27T10:55:23.442Z,4.97
2023-03-27T11:00:54.428Z,4.36
2023-03-27T11:06:00.375Z,4.10
2023-03-27T11:11:33.072Z,3.82
2023-03-27T11:16:41.502Z,3.58
2023-03-27T11:21:53.721Z,3.64
2023-03-27T11:26:59.957Z,3.58
2023-03-27T11:32:18.162Z,3.32
2023-03-27T11:37:43.381Z,2.90
2023-03-27T11:42:48.136Z,2.88
2023-03-27T11:48:12.912Z,2.97
2023-03-27T11:53:57.426Z,3.19
2023-03-27T11:59:22.254Z,3.34
2023-03-27T12:04:48.796Z,3.27
2023-03-27T12:10:10.462Z,3.40
2023-03-27T12:15:37.706Z,3.69
2023-03-27T12:20:52.800Z,3.76
2023-03-27T12:26:09.144Z,3.96
2023-03-27T12:31:58.207Z,4.28
2023-03-27T12:37:04.599Z,4.46
2023-03-27T12:42:15.571Z,4.26
2023-03-27T12:47:25.171Z,3.95
2023-03-27T12:52:28.841Z,3.79
2023-03-27T12:57:41.743Z,4.08
2023-03-27T13:03:19.730Z,4.49
2023-03-27T13:08:23.318Z,4.60
2023-03-27T13:14:05.029Z,4.42
2023-03-27T13:19:30.056Z,4.42
2023-03-27T13:24:52.613Z,4.38
2023-03-27T13:29:58.164Z,4.28
2023-03-27T13:35:21.355Z,4.48
2023-03-27T13:40:36.879Z,4.88
2023-03-27T13:45:48.381Z,5.13
2023-03-27T13:51:13.576Z,4.79
2023-03-27T13:56:37.596Z,4.18
2023-03-27T14:02:08.792Z,3.79
2023-03-27T14:07:43.926Z,3.70
2023-03-27T14:12:55.806Z,4.26
2023-03-27T14:18:26.662Z,4.92
2023-03-27T14:23:42.071Z,5.23
2023-03-27T14:28:55.210Z,5.37
2023-03-27T14:34:04.344Z,5.10
2023-03-27T14:39:18.419Z,4.99
2023-03-27T14:44:24.179Z,5.49
2023-03-27T14:49:36.192Z,8.15
2023-03-27T14:54:52.233Z,8.67
2023-03-27T14:59:58.995Z,7.95
2023-03-27T15:05:12.198Z,7.57
2023-03-27T15:10:20.933Z,6.32
2023-03-27T15:15:43.085Z,5.47
2023-03-27T15:20:46.955Z,5.09
2023-03-27T15:26:05.107Z,4.53
2023-03-27T15:31:10.187Z,4.16
2023-03-27T15:36:27.087Z,3.94
2023-03-27T15:41:33.374Z,3.49
2023-03-27T15:46:52.370Z,3.18
2023-03-27T15:51:57.756Z,2.82
2023-03-27T15:57:09.862Z,2.74
2023-03-27T16:02:17.302Z,2.60
2023-03-27T16:07:27.729Z,2.57
2023-03-27T16:12:34.535Z,3.77
2023-03-27T16:17:45.204Z,4.15
2023-03-27T16:22:49.412Z,3.61
2023-03-27T16:27:58.764Z,3.44
2023-03-27T16:33:03.609Z,3.27
2023-03-27T16:38:07.335Z,2.91
2023-03-27T16:43:11.057Z,2.46
2023-03-27T16:48:14.991Z,2.44
2023-03-27T16:53:18.501Z,2.44
2023-03-27T16:58:22.216Z,3.15
2023-03-27T17:03:25.633Z,3.13
2023-03-27T17:08:31.398Z,2.27
2023-03-27T17:13:36.243Z,1.77
2023-03-27T17:18:39.685Z,1.42
2023-03-27T17:23:46.354Z,1.24
2023-03-27T17:28:49.867Z,1.09
2023-03-27T17:33:53.342Z,0.94
2023-03-27T17:38:56.793Z,0.79
2023-03-27T17:44:00.215Z,0.55
2023-03-27T17:49:04.145Z,0.44
2023-03-27T17:54:07.546Z,0.40
2023-03-27T17:59:10.855Z,0.26
2023-03-27T18:04:14.404Z,0.23
2023-03-27T18:09:17.786Z,0.17
2023-03-27T18:14:21.514Z,0.15
2023-03-27T18:19:25.536Z,-0.01
2023-03-27T18:24:29.050Z,-0.07
2023-03-27T18:29:34.068Z,-0.12
2023-03-27T18:34:37.411Z,0.04
2023-03-27T18:39:40.896Z,0.03
2023-03-27T18:44:44.859Z,-0.21
2023-03-27T18:49:48.465Z,-0.42
2023-03-27T18:54:51.891Z,-0.50
2023-03-27T18:59:55.596Z,-0.57
2023-03-27T19:04:58.909Z,-0.61
2023-03-27T19:10:02.662Z,-0.55
2023-03-27T19:15:17.222Z,-0.51
2023-03-27T19:20:23.777Z,-0.61
2023-03-27T19:25:27.922Z,-0.76
2023-03-27T19:30:32.638Z,-0.79
2023-03-27T19:35:36.224Z,-0.84
2023-03-27T19:40:39.804Z,-0.87
2023-03-27T19:45:58.378Z,-0.82
2023-03-27T19:51:08.206Z,-0.86
2023-03-27T19:56:11.683Z,-0.86
2023-03-27T20:01:15.267Z,-0.89
2023-03-27T20:06:19.803Z,-0.88
2023-03-27T20:11:23.520Z,-0.89
2023-03-27T20:16:28.252Z,-0.92
2023-03-27T20:21:39.881Z,-0.99
2023-03-27T20:26:48.239Z,-1.08
2023-03-27T20:31:51.969Z,-1.15
2023-03-27T20:36:59.274Z,-1.18
2023-03-27T20:42:02.544Z,-1.23
2023-03-27T20:47:12.585Z,-1.29
2023-03-27T20:52:18.990Z,-1.30
2023-03-27T20:57:22.835Z,-1.34
2023-03-27T21:02:26.366Z,-1.41
2023-03-27T21:07:34.397Z,-1.44
2023-03-27T21:12:39.879Z,-1.46
2023-03-27T21:17:44.059Z,-1.51
2023-03-27T21:22:52.987Z,-1.52
2023-03-27T21:27:56.531Z,-1.56
2023-03-27T21:32:59.941Z,-1.58
2023-03-27T21:38:04.676Z,-1.61
2023-03-27T21:43:09.252Z,-1.69
2023-03-27T21:48:12.580Z,-1.69
2023-03-27T21:53:17.459Z,-1.70
2023-03-27T21:58:21.078Z,-1.76
2023-03-27T22:03:25.923Z,-1.78
2023-03-27T22:08:29.234Z,-1.86
2023-03-27T22:13:36.432Z,-1.86
2023-03-27T22:18:40.768Z,-1.84
2023-03-27T22:23:45.030Z,-1.92
2023-03-27T22:28:48.316Z,-1.97
2023-03-27T22:33:52.241Z,-2.00
2023-03-27T22:38:55.682Z,-2.05
2023-03-27T22:44:01.460Z,-2.09
2023-03-27T22:49:04.937Z,-2.12
2023-03-27T22:54:08.554Z,-2.15
2023-03-27T22:59:12.738Z,-2.18
2023-03-27T23:04:16.300Z,-2.17
2023-03-27T23:09:19.637Z,-2.19
2023-03-27T23:14:23.639Z,-2.20
2023-03-27T23:19:27.053Z,-2.20
2023-03-27T23:24:30.671Z,-2.19
2023-03-27T23:29:34.495Z,-2.20
2023-03-27T23:34:37.806Z,-2.21
2023-03-27T23:39:41.728Z,-2.10
2023-03-27T23:44:45.139Z,-2.20
2023-03-27T23:49:49.065Z,-2.19
2023-03-27T23:54:52.710Z,-2.22
2023-03-27T23:59:56.100Z,-2.20
